Time;durP1;ratioP1;P1;durP2;ratioP2;P2;SDS_P1;SDS_P2;PMS_P1;PMS_P2;Temp;Humidity;BMP_temperature;BMP_pressure;BME280_temperature;BME280_humidity;BME280_pressure;Samples;Min_cycle;Max_cycle;Signal;HPM_P1;HPM_P2
2023/12/30 00:01:04;;;;;;;18.05;2.25;;;;;;;5.35;100.00;99920.75;4966587;28;20245;-43
2023/12/30 00:03:29;;;;;;;12.60;2.35;;;;;;;5.31;100.00;99924.44;4967197;28;20198;-43
2023/12/30 00:05:55;;;;;;;8.68;2.50;;;;;;;5.32;100.00;99922.66;4970181;28;20209;-44
2023/12/30 00:08:20;;;;;;;15.57;2.63;;;;;;;5.29;100.00;99934.25;4967747;28;20649;-43
2023/12/30 00:10:46;;;;;;;14.07;2.10;;;;;;;5.35;100.00;99931.38;4970251;28;20182;-44
2023/12/30 00:13:12;;;;;;;18.20;3.15;;;;;;;5.35;100.00;99918.09;4969273;28;20293;-44
2023/12/30 00:15:38;;;;;;;19.13;2.92;;;;;;;5.28;100.00;99919.22;4968005;28;20831;-45
2023/12/30 00:18:03;;;;;;;22.17;2.53;;;;;;;5.28;100.00;99928.97;4968696;28;20189;-43
2023/12/30 00:20:29;;;;;;;16.63;2.30;;;;;;;5.21;100.00;99912.38;4964094;28;20189;-44
2023/12/30 00:22:54;;;;;;;8.82;2.03;;;;;;;5.22;100.00;99905.25;4968783;28;20317;-43
2023/12/30 00:25:21;;;;;;;8.57;1.85;;;;;;;5.21;100.00;99916.81;4969878;28;20265;-43
2023/12/30 00:27:49;;;;;;;13.40;1.92;;;;;;;5.15;100.00;99909.88;4969557;28;20194;-44
2023/12/30 00:30:14;;;;;;;8.05;1.58;;;;;;;5.16;100.00;99916.97;4970170;28;20568;-44
2023/12/30 00:32:40;;;;;;;14.35;2.33;;;;;;;5.19;100.00;99918.66;4963947;28;20289;-43
2023/12/30 00:35:09;;;;;;;13.18;2.03;;;;;;;5.18;100.00;99912.44;4968343;28;20214;-44
2023/12/30 00:37:35;;;;;;;8.02;1.85;;;;;;;5.20;100.00;99926.53;4968101;28;20190;-44
2023/12/30 00:40:01;;;;;;;4.25;1.05;;;;;;;5.18;100.00;99923.06;4969576;28;20193;-44
2023/12/30 00:42:26;;;;;;;7.22;1.67;;;;;;;5.19;100.00;99934.56;4968321;28;20194;-44
2023/12/30 00:44:52;;;;;;;5.70;1.45;;;;;;;5.23;100.00;99945.06;4965374;28;20580;-43
2023/12/30 00:47:17;;;;;;;7.63;1.40;;;;;;;5.28;100.00;99988.25;4966995;28;20194;-44
2023/12/30 00:49:43;;;;;;;9.02;2.03;;;;;;;5.21;100.00;99986.72;4967005;28;20180;-44
2023/12/30 00:52:10;;;;;;;10.00;1.65;;;;;;;5.03;100.00;100003.16;4959389;28;20285;-45
2023/12/30 00:54:36;;;;;;;6.88;1.33;;;;;;;4.85;100.00;99993.94;4967294;28;20618;-45
2023/12/30 00:57:02;;;;;;;6.13;2.15;;;;;;;4.70;100.00;99996.13;4969086;28;20304;-44
2023/12/30 00:59:28;;;;;;;3.60;1.30;;;;;;;4.54;100.00;100018.66;4962226;28;20200;-43
2023/12/30 01:01:53;;;;;;;7.53;1.33;;;;;;;4.47;100.00;99982.63;4966148;28;20500;-45
2023/12/30 01:04:19;;;;;;;2.83;0.80;;;;;;;4.43;100.00;99995.09;4964220;28;20264;-44
2023/12/30 01:06:44;;;;;;;6.90;0.80;;;;;;;4.47;100.00;99993.22;4968073;28;20273;-44
2023/12/30 01:09:09;;;;;;;8.05;1.58;;;;;;;4.46;100.00;100018.88;4967616;28;20323;-44
2023/12/30 01:11:35;;;;;;;2.90;1.13;;;;;;;4.43;100.00;100016.31;4968831;28;20346;-45
2023/12/30 01:14:00;;;;;;;1.88;0.85;;;;;;;4.45;100.00;100011.81;4962856;28;20213;-43
2023/12/30 01:16:26;;;;;;;4.53;1.20;;;;;;;4.52;100.00;100013.41;4964277;28;20571;-44
2023/12/30 01:18:52;;;;;;;9.30;1.40;;;;;;;4.38;100.00;100017.34;4967069;28;20189;-44
2023/12/30 01:21:18;;;;;;;6.72;0.85;;;;;;;4.33;100.00;100028.94;4965779;28;20245;-43
2023/12/30 01:23:44;;;;;;;5.43;0.82;;;;;;;4.11;100.00;100044.50;4965393;28;20265;-45
2023/12/30 01:26:09;;;;;;;3.95;0.88;;;;;;;4.04;100.00;100034.09;4966242;28;20240;-44
2023/12/30 01:28:36;;;;;;;4.50;1.02;;;;;;;3.89;100.00;100043.25;4968255;28;20201;-45
2023/12/30 01:31:03;;;;;;;2.78;0.70;;;;;;;3.67;100.00;100040.25;4968961;28;20731;-44
2023/12/30 01:33:28;;;;;;;5.05;1.05;;;;;;;3.60;100.00;100039.50;4965980;28;20201;-45
2023/12/30 01:35:55;;;;;;;4.53;1.10;;;;;;;3.67;100.00;100030.53;4966200;28;20217;-43
2023/12/30 01:38:21;;;;;;;4.43;1.00;;;;;;;3.64;100.00;100037.69;4965501;28;20206;-45
2023/12/30 01:40:47;;;;;;;3.33;0.90;;;;;;;3.69;100.00;100039.28;4968348;28;20189;-44
2023/12/30 01:43:26;;;;;;;8.02;1.58;;;;;;;3.69;100.00;100034.00;4966215;28;20208;-42
2023/12/30 01:45:55;;;;;;;6.32;1.13;;;;;;;3.70;100.00;100045.50;4966364;28;20181;-45
2023/12/30 01:48:22;;;;;;;6.53;1.20;;;;;;;3.75;100.00;100050.69;4959460;28;20261;-44
2023/12/30 01:50:49;;;;;;;3.08;1.30;;;;;;;3.76;100.00;100045.34;4966558;28;20245;-44
2023/12/30 01:53:16;;;;;;;7.57;1.02;;;;;;;3.85;100.00;100046.91;4965155;28;20206;-44
2023/12/30 01:55:42;;;;;;;7.05;1.30;;;;;;;3.79;100.00;100047.91;4966733;28;20296;-43
2023/12/30 01:58:08;;;;;;;11.30;1.60;;;;;;;3.84;100.00;100050.47;4968135;28;20296;-44
2023/12/30 02:00:34;;;;;;;5.30;1.38;;;;;;;3.79;100.00;100045.28;4960865;28;20182;-43
2023/12/30 02:03:01;;;;;;;7.97;1.30;;;;;;;3.81;100.00;100039.94;4966558;28;20256;-43
2023/12/30 02:05:27;;;;;;;5.50;1.23;;;;;;;3.85;100.00;100058.38;4965653;28;20201;-42
2023/12/30 02:07:53;;;;;;;2.90;1.10;;;;;;;3.90;100.00;100058.28;4966557;28;20260;-45
2023/12/30 02:10:19;;;;;;;3.38;1.10;;;;;;;3.99;100.00;100059.84;4968037;28;20174;-44
2023/12/30 02:12:44;;;;;;;6.43;1.10;;;;;;;4.09;100.00;100059.59;4963323;28;20656;-44
2023/12/30 02:15:11;;;;;;;5.03;0.80;;;;;;;3.99;100.00;100060.69;4969625;28;20293;-44
2023/12/30 02:17:37;;;;;;;3.85;0.98;;;;;;;4.05;100.00;100062.34;4967417;28;20352;-44
2023/12/30 02:20:03;;;;;;;3.63;1.20;;;;;;;4.06;100.00;100061.44;4969359;28;20720;-44
2023/12/30 02:22:28;;;;;;;6.00;1.42;;;;;;;4.00;100.00;100054.50;4971188;28;20565;-43
2023/12/30 02:24:59;;;;;;;6.13;1.08;;;;;;;3.97;100.00;100053.69;4970198;28;20665;-44
2023/12/30 02:27:25;;;;;;;1.52;0.70;;;;;;;4.06;100.00;100062.28;4964467;28;20209;-43
2023/12/30 02:29:51;;;;;;;6.55;0.88;;;;;;;4.00;100.00;100057.16;4971822;28;20618;-44
2023/12/30 02:32:17;;;;;;;2.75;0.60;;;;;;;3.93;100.00;100074.09;4970302;28;20182;-45
2023/12/30 02:34:44;;;;;;;4.72;0.68;;;;;;;3.86;100.00;100069.84;4969736;28;20704;-45
2023/12/30 02:37:10;;;;;;;0.77;0.50;;;;;;;3.80;100.00;100069.97;4970450;28;20186;-43
2023/12/30 02:39:36;;;;;;;2.97;0.52;;;;;;;3.80;100.00;100072.63;4969485;28;20188;-44
2023/12/30 02:42:01;;;;;;;2.55;0.47;;;;;;;3.79;100.00;100070.91;4970989;28;20552;-43
2023/12/30 02:44:27;;;;;;;0.80;0.45;;;;;;;3.88;100.00;100084.81;4956195;28;20672;-43
2023/12/30 02:46:52;;;;;;;3.70;0.50;;;;;;;3.83;100.00;100081.41;4967866;28;20259;-42
2023/12/30 02:49:19;;;;;;;1.48;0.40;;;;;;;3.79;100.00;100094.75;4986171;28;20611;-43
2023/12/30 02:51:44;;;;;;;2.08;0.50;;;;;;;3.79;100.00;100095.63;4968972;28;20232;-44
2023/12/30 02:54:11;;;;;;;2.50;0.60;;;;;;;3.83;100.00;100102.59;4967861;28;20607;-44
2023/12/30 02:56:36;;;;;;;2.92;0.55;;;;;;;3.88;100.00;100129.84;4968185;28;20386;-44
2023/12/30 02:59:02;;;;;;;1.05;0.47;;;;;;;3.84;100.00;100136.13;4970939;28;20257;-45
2023/12/30 03:01:31;;;;;;;5.93;0.73;;;;;;;3.84;100.00;100111.41;4968088;28;20188;-43
2023/12/30 03:04:00;;;;;;;1.90;0.80;;;;;;;3.81;100.00;100108.84;4967360;28;20214;-43
2023/12/30 03:06:26;;;;;;;3.30;0.63;;;;;;;3.73;100.00;100119.59;4967753;28;20185;-44
2023/12/30 03:08:52;;;;;;;3.38;0.60;;;;;;;3.67;100.00;100117.97;4967489;28;20174;-44
2023/12/30 03:11:18;;;;;;;1.73;0.63;;;;;;;3.69;100.00;100120.56;4968513;28;20255;-44
2023/12/30 03:13:44;;;;;;;2.60;0.50;;;;;;;3.72;100.00;100120.50;4969534;28;20739;-43
2023/12/30 03:16:16;;;;;;;7.25;0.70;;;;;;;3.63;100.00;100123.31;4970655;28;20552;-43
2023/12/30 03:18:43;;;;;;;2.40;0.50;;;;;;;3.71;100.00;100116.09;4969846;28;20178;-44
2023/12/30 03:21:10;;;;;;;3.85;0.68;;;;;;;3.64;100.00;100123.31;4963447;28;20236;-45
2023/12/30 03:23:37;;;;;;;3.25;0.70;;;;;;;3.64;100.00;100136.56;4961523;28;20386;-45
2023/12/30 03:26:03;;;;;;;3.10;0.82;;;;;;;3.68;100.00;100140.03;4967753;28;20670;-45
2023/12/30 03:28:29;;;;;;;3.95;0.75;;;;;;;3.72;100.00;100139.91;4969526;28;20636;-45
2023/12/30 03:30:55;;;;;;;3.30;0.50;;;;;;;3.68;100.00;100138.22;4967837;28;20593;-44
2023/12/30 03:33:21;;;;;;;2.10;0.60;;;;;;;3.69;100.00;100134.66;4970496;28;20220;-46
2023/12/30 03:35:46;;;;;;;5.57;0.70;;;;;;;3.83;100.00;100136.19;4968453;28;20198;-45
2023/12/30 03:38:12;;;;;;;2.50;0.60;;;;;;;3.72;100.00;100137.28;4967253;28;20220;-45
2023/12/30 03:40:37;;;;;;;3.17;0.70;;;;;;;3.65;100.00;100135.66;4968206;28;20186;-45
2023/12/30 03:43:03;;;;;;;3.60;0.65;;;;;;;3.71;100.00;100135.50;4968504;28;20588;-44
2023/12/30 03:45:29;;;;;;;4.30;1.35;;;;;;;3.69;100.00;100142.63;4964358;28;20187;-43
2023/12/30 03:47:54;;;;;;;3.83;0.70;;;;;;;3.59;100.00;100156.09;4960084;28;20182;-44
2023/12/30 03:50:20;;;;;;;4.68;0.60;;;;;;;3.65;100.00;100151.56;4968261;28;20185;-44
2023/12/30 03:52:46;;;;;;;1.80;0.80;;;;;;;3.65;100.00;100153.31;4970156;28;20212;-45
2023/12/30 03:55:12;;;;;;;5.25;1.05;;;;;;;3.68;100.00;100147.97;4968866;28;20248;-44
2023/12/30 03:57:38;;;;;;;5.30;0.50;;;;;;;3.63;100.00;100144.53;4961084;28;20170;-44
2023/12/30 04:00:05;;;;;;;2.33;0.68;;;;;;;3.55;100.00;100150.00;4967436;28;20208;-46
2023/12/30 04:02:37;;;;;;;3.80;1.08;;;;;;;3.54;100.00;100163.25;4969251;28;20205;-44
2023/12/30 04:05:04;;;;;;;6.05;1.00;;;;;;;3.56;100.00;100153.50;4967759;28;20770;-45
2023/12/30 04:07:29;;;;;;;3.83;0.70;;;;;;;3.56;100.00;100154.38;4968342;28;20190;-44
2023/12/30 04:09:55;;;;;;;5.95;0.70;;;;;;;3.57;100.00;100144.66;4968281;28;20228;-44
2023/12/30 04:12:20;;;;;;;5.10;0.80;;;;;;;3.46;100.00;100151.06;4967198;28;20270;-45
2023/12/30 04:14:47;;;;;;;5.07;1.02;;;;;;;3.44;100.00;100158.16;4966450;28;20523;-45
2023/12/30 04:17:13;;;;;;;4.57;0.90;;;;;;;3.40;100.00;100161.75;4967130;28;20288;-44
2023/12/30 04:19:39;;;;;;;7.38;1.00;;;;;;;3.41;100.00;100163.53;4963324;28;20233;-43
2023/12/30 04:22:05;;;;;;;8.65;1.08;;;;;;;3.49;100.00;100166.88;4969117;28;20624;-44
2023/12/30 04:24:30;;;;;;;11.07;1.10;;;;;;;3.47;100.00;100167.81;4967069;28;20202;-43
2023/12/30 04:26:56;;;;;;;5.45;1.08;;;;;;;3.59;100.00;100159.63;4967012;28;20240;-43
2023/12/30 04:29:22;;;;;;;4.88;1.10;;;;;;;3.61;100.00;100167.53;4969156;28;20715;-42
2023/12/30 04:31:48;;;;;;;7.05;1.67;;;;;;;3.67;100.00;100163.00;4969473;28;20228;-44
2023/12/30 04:34:14;;;;;;;2.47;0.68;;;;;;;3.65;100.00;100164.81;4966559;28;20290;-43
2023/12/30 04:36:39;;;;;;;7.95;1.27;;;;;;;3.66;100.00;100166.53;4964913;28;20300;-44
2023/12/30 04:39:05;;;;;;;10.43;1.23;;;;;;;3.69;100.00;100162.94;4964573;28;20246;-44
2023/12/30 04:41:30;;;;;;;9.38;1.27;;;;;;;3.73;100.00;100159.31;4964935;28;20189;-45
2023/12/30 04:43:56;;;;;;;5.30;0.95;;;;;;;3.80;100.00;100163.59;4967699;28;20285;-45
2023/12/30 04:46:21;;;;;;;8.02;1.67;;;;;;;3.76;100.00;100167.22;4967124;28;20182;-43
2023/12/30 04:48:52;;;;;;;7.35;1.20;;;;;;;3.75;100.00;100169.91;4969108;28;20586;-45
2023/12/30 04:51:17;;;;;;;8.15;1.10;;;;;;;3.74;100.00;100166.38;4966049;28;20265;-44
2023/12/30 04:53:43;;;;;;;3.53;1.08;;;;;;;3.74;100.00;100157.53;4968163;28;20193;-44
2023/12/30 04:56:14;;;;;;;10.52;1.40;;;;;;;3.75;100.00;100161.94;4967413;28;20591;-44
2023/12/30 04:58:40;;;;;;;7.70;1.30;;;;;;;3.72;100.00;100162.91;4968105;28;20191;-45
2023/12/30 05:01:05;;;;;;;8.40;1.38;;;;;;;3.73;100.00;100172.56;4966969;28;20185;-44
2023/12/30 05:03:31;;;;;;;8.02;1.20;;;;;;;3.72;100.00;100176.13;4971217;28;20213;-44
2023/12/30 05:05:57;;;;;;;6.18;1.35;;;;;;;3.71;100.00;100172.59;4967638;28;20176;-44
2023/12/30 05:08:22;;;;;;;11.88;1.55;;;;;;;3.75;100.00;100177.84;4968625;28;20184;-45
2023/12/30 05:13:16;;;;;;;9.15;1.42;;;;;;;3.80;100.00;100183.91;4919539;29;20227;-43
2023/12/30 05:15:42;;;;;;;7.07;1.33;;;;;;;3.76;100.00;100193.72;4929708;29;20741;-43
2023/12/30 05:18:08;;;;;;;13.50;1.90;;;;;;;3.78;100.00;100196.31;4937950;29;20183;-45
2023/12/30 05:20:33;;;;;;;7.72;1.48;;;;;;;3.77;100.00;100205.19;4930534;29;20187;-45
2023/12/30 05:23:03;;;;;;;12.90;1.92;;;;;;;3.83;100.00;100192.69;4936361;29;20298;-44
2023/12/30 05:25:29;;;;;;;8.18;1.55;;;;;;;3.85;100.00;100196.19;4912969;29;20662;-45
2023/12/30 05:27:54;;;;;;;10.07;1.40;;;;;;;3.92;100.00;100211.03;4931205;29;20214;-46
2023/12/30 05:30:21;;;;;;;7.07;1.27;;;;;;;3.96;100.00;100214.50;4936854;29;20187;-46
2023/12/30 05:32:47;;;;;;;10.93;1.55;;;;;;;3.92;100.00;100205.72;4934024;29;20696;-47
2023/12/30 05:35:12;;;;;;;11.75;2.67;;;;;;;3.99;100.00;100206.47;4934701;29;20214;-44
2023/12/30 05:37:38;;;;;;;6.50;1.40;;;;;;;3.99;100.00;100216.22;4931843;29;20194;-45
2023/12/30 05:40:06;;;;;;;8.55;2.38;;;;;;;4.02;100.00;100224.94;4936004;29;20210;-46
2023/12/30 05:42:31;;;;;;;12.25;2.15;;;;;;;4.03;100.00;100217.91;4934243;29;20242;-45
2023/12/30 05:44:57;;;;;;;11.70;2.30;;;;;;;4.07;100.00;100228.41;4933375;29;20588;-45
2023/12/30 05:47:23;;;;;;;8.45;1.90;;;;;;;4.08;100.00;100226.63;4920135;29;20183;-44
2023/12/30 05:49:49;;;;;;;8.38;1.45;;;;;;;4.04;100.00;100209.88;4916822;29;20238;-47
2023/12/30 05:52:14;;;;;;;6.10;1.35;;;;;;;4.03;100.00;100224.06;4932146;29;20598;-46
2023/12/30 05:54:40;;;;;;;4.20;1.17;;;;;;;4.06;100.00;100220.47;4926647;29;20283;-46
2023/12/30 05:57:05;;;;;;;8.65;1.50;;;;;;;4.13;100.00;100228.28;4937533;29;20246;-45
2023/12/30 05:59:31;;;;;;;7.35;1.33;;;;;;;4.09;100.00;100236.31;4935723;29;20230;-44
2023/12/30 06:01:58;;;;;;;9.25;1.75;;;;;;;4.14;100.00;100239.75;4917461;29;20187;-44
2023/12/30 06:04:25;;;;;;;7.43;1.42;;;;;;;4.16;100.00;100239.72;4935800;29;20573;-46
2023/12/30 06:06:50;;;;;;;10.32;1.60;;;;;;;4.16;100.00;100255.63;4931731;29;20175;-46
2023/12/30 06:09:16;;;;;;;8.30;1.30;;;;;;;4.26;100.00;100267.75;4936563;29;20257;-47
2023/12/30 06:11:41;;;;;;;5.43;1.25;;;;;;;4.24;100.00;100256.31;4919343;29;20190;-45
2023/12/30 06:14:07;;;;;;;9.13;1.55;;;;;;;4.21;100.00;100262.56;4931097;29;20200;-45
2023/12/30 06:16:32;;;;;;;8.30;1.40;;;;;;;4.25;100.00;100263.38;4933550;29;20253;-46
2023/12/30 06:18:58;;;;;;;11.43;1.27;;;;;;;4.26;100.00;100281.03;4932182;29;20620;-45
2023/12/30 06:21:23;;;;;;;6.72;1.60;;;;;;;4.26;100.00;100265.09;4935798;29;20179;-44
2023/12/30 06:23:48;;;;;;;9.93;0.90;;;;;;;4.23;100.00;100274.00;4933444;29;20223;-45
2023/12/30 06:26:14;;;;;;;11.30;1.92;;;;;;;4.30;100.00;100295.97;4930739;29;20175;-46
2023/12/30 06:28:39;;;;;;;7.88;1.50;;;;;;;4.29;100.00;100295.09;4930145;29;20264;-46
2023/12/30 06:31:05;;;;;;;9.18;1.35;;;;;;;4.33;100.00;100298.56;4933538;29;20497;-47
2023/12/30 06:33:30;;;;;;;9.15;1.20;;;;;;;4.31;100.00;100292.41;4913701;29;20323;-44
2023/12/30 06:35:56;;;;;;;12.75;1.92;;;;;;;4.36;100.00;100297.63;4932116;29;20246;-45
2023/12/30 06:38:21;;;;;;;4.30;1.42;;;;;;;4.34;100.00;100292.34;4933069;29;20175;-45
2023/12/30 06:40:47;;;;;;;13.82;1.63;;;;;;;4.31;100.00;100305.69;4931504;29;20863;-46
2023/12/30 06:43:13;;;;;;;8.45;1.45;;;;;;;4.39;100.00;100311.69;4931223;29;20203;-47
2023/12/30 06:45:38;;;;;;;7.05;1.60;;;;;;;4.31;100.00;100313.63;4930776;29;20195;-46
2023/12/30 06:48:04;;;;;;;10.02;1.70;;;;;;;4.25;100.00;100314.63;4932239;29;20203;-44
2023/12/30 06:50:30;;;;;;;6.95;1.30;;;;;;;4.21;100.00;100314.72;4932921;29;20645;-45
2023/12/30 06:52:56;;;;;;;6.68;1.50;;;;;;;4.22;100.00;100319.09;4932471;29;20547;-47
2023/12/30 06:55:22;;;;;;;8.85;1.38;;;;;;;4.26;100.00;100318.13;4931432;29;20223;-44
2023/12/30 06:57:48;;;;;;;7.80;2.10;;;;;;;4.21;100.00;100320.88;4930956;29;20186;-46
2023/12/30 07:00:14;;;;;;;9.15;1.33;;;;;;;4.19;100.00;100330.66;4931703;29;20195;-46
2023/12/30 07:02:41;;;;;;;11.18;1.77;;;;;;;4.10;100.00;100334.34;4929240;29;20223;-45
2023/12/30 07:05:08;;;;;;;8.05;1.48;;;;;;;4.06;100.00;100342.41;4931416;29;20549;-45
2023/12/30 07:07:34;;;;;;;10.75;2.03;;;;;;;4.04;100.00;100350.38;4937297;29;20275;-46
2023/12/30 07:10:00;;;;;;;7.28;1.08;;;;;;;4.08;100.00;100367.13;4920074;29;20286;-46
2023/12/30 07:12:25;;;;;;;9.55;1.30;;;;;;;4.02;100.00;100368.09;4933701;29;20192;-45
2023/12/30 07:14:50;;;;;;;9.35;1.30;;;;;;;4.03;100.00;100375.16;4917310;29;20184;-46
2023/12/30 07:17:16;;;;;;;11.45;1.70;;;;;;;3.97;100.00;100377.91;4934757;29;20214;-46
2023/12/30 07:19:42;;;;;;;11.00;2.10;;;;;;;3.95;100.00;100378.84;4936402;29;20202;-44
2023/12/30 07:22:07;;;;;;;8.23;1.50;;;;;;;4.00;100.00;100391.13;4935288;29;20270;-46
2023/12/30 07:24:33;;;;;;;7.30;1.15;;;;;;;3.90;100.00;100379.81;4931826;29;20708;-45
2023/12/30 07:26:58;;;;;;;6.40;1.38;;;;;;;3.84;100.00;100392.28;4932986;29;20269;-47
2023/12/30 07:29:24;;;;;;;11.27;1.80;;;;;;;3.86;100.00;100401.09;4937479;29;20197;-46
2023/12/30 07:31:50;;;;;;;7.28;1.38;;;;;;;3.89;100.00;100398.38;4931730;29;20206;-47
2023/12/30 07:34:17;;;;;;;12.15;2.55;;;;;;;3.95;100.00;100408.00;4935177;29;20211;-45
2023/12/30 07:36:43;;;;;;;7.18;2.00;;;;;;;3.91;100.00;100407.16;4914016;29;20249;-45
2023/12/30 07:39:09;;;;;;;6.03;1.50;;;;;;;3.91;100.00;100408.06;4937473;29;20187;-46
2023/12/30 07:41:37;;;;;;;8.25;1.70;;;;;;;3.88;100.00;100416.06;4932932;29;20191;-46
2023/12/30 07:44:02;;;;;;;7.53;1.65;;;;;;;3.94;100.00;100423.03;4927677;29;20582;-46
2023/12/30 07:46:28;;;;;;;10.02;1.88;;;;;;;3.95;100.00;100416.81;4911535;29;20191;-44
2023/12/30 07:48:53;;;;;;;13.98;1.70;;;;;;;3.93;100.00;100415.97;4937740;29;20246;-46
2023/12/30 07:51:19;;;;;;;11.98;1.38;;;;;;;4.01;100.00;100416.72;4931505;29;20227;-46
2023/12/30 07:53:44;;;;;;;11.25;1.52;;;;;;;3.94;100.00;100427.47;4930817;29;20298;-45
2023/12/30 07:56:09;;;;;;;6.10;1.25;;;;;;;3.90;100.00;100439.88;4916141;29;20294;-46
2023/12/30 07:58:35;;;;;;;9.23;1.27;;;;;;;3.89;100.00;100440.78;4934083;29;20953;-44
2023/12/30 08:01:01;;;;;;;11.40;1.85;;;;;;;3.86;100.00;100430.25;4928873;29;20203;-45
2023/12/30 08:03:26;;;;;;;8.63;1.80;;;;;;;3.86;100.00;100443.50;4932016;29;20258;-45
2023/12/30 08:05:51;;;;;;;11.75;1.70;;;;;;;3.87;100.00;100443.47;4930022;29;20180;-45
2023/12/30 08:08:19;;;;;;;12.15;1.60;;;;;;;3.95;100.00;100443.31;4917894;29;20290;-46
2023/12/30 08:10:44;;;;;;;11.70;1.95;;;;;;;3.87;100.00;100448.78;4936648;29;20187;-47
2023/12/30 08:13:10;;;;;;;6.13;1.13;;;;;;;3.91;100.00;100449.56;4931640;29;20225;-45
2023/12/30 08:15:35;;;;;;;11.40;1.35;;;;;;;3.86;100.00;100456.75;4932635;29;20203;-44
2023/12/30 08:18:01;;;;;;;10.73;2.22;;;;;;;3.89;100.00;100451.38;4930494;29;20185;-46
2023/12/30 08:20:26;;;;;;;12.73;1.52;;;;;;;3.85;100.00;100455.88;4931461;29;20274;-46
2023/12/30 08:22:52;;;;;;;4.50;1.20;;;;;;;3.87;100.00;100463.78;4926572;29;20214;-46
2023/12/30 08:25:17;;;;;;;7.18;1.45;;;;;;;3.92;100.00;100457.50;4914486;29;20575;-45
2023/12/30 08:27:42;;;;;;;5.38;1.05;;;;;;;3.96;100.00;100462.75;4934312;29;20195;-43
2023/12/30 08:30:09;;;;;;;4.40;1.23;;;;;;;3.91;100.00;100462.81;4937309;29;20199;-46
2023/12/30 08:32:34;;;;;;;9.68;1.65;;;;;;;3.94;100.00;100477.84;4933396;29;20254;-46
2023/12/30 08:35:02;;;;;;;12.43;1.83;;;;;;;3.96;100.00;100481.28;4910114;29;20656;-46
2023/12/30 08:37:29;;;;;;;7.57;1.60;;;;;;;4.01;100.00;100482.97;4933082;29;20680;-44
2023/12/30 08:39:54;;;;;;;9.18;1.58;;;;;;;4.03;100.00;100489.13;4930170;29;20264;-44
2023/12/30 08:42:21;;;;;;;10.10;1.73;;;;;;;4.03;100.00;100496.22;4931013;29;20800;-45
2023/12/30 08:44:47;;;;;;;6.85;1.40;;;;;;;4.04;100.00;100497.97;4930266;29;20187;-46
2023/12/30 08:47:15;;;;;;;9.80;2.10;;;;;;;4.14;100.00;100496.91;4931867;29;20559;-46
2023/12/30 08:49:40;;;;;;;9.43;2.00;;;;;;;4.36;100.00;100504.50;4929957;29;20215;-45
2023/12/30 08:52:06;;;;;;;12.95;2.10;;;;;;;4.40;100.00;100511.50;4930718;29;20198;-45
2023/12/30 08:54:32;;;;;;;12.27;2.10;;;;;;;4.53;100.00;100515.69;4932121;29;20217;-45
2023/12/30 08:56:57;;;;;;;9.65;1.85;;;;;;;4.67;100.00;100515.41;4934509;29;20226;-46
2023/12/30 08:59:26;;;;;;;8.85;2.03;;;;;;;4.69;100.00;100510.94;4933274;29;20238;-45
2023/12/30 09:01:52;;;;;;;9.10;2.25;;;;;;;4.77;100.00;100524.03;4903136;29;20203;-44
2023/12/30 09:04:18;;;;;;;13.15;2.38;;;;;;;4.55;100.00;100527.13;4936063;29;20254;-45
2023/12/30 09:06:44;;;;;;;14.27;1.73;;;;;;;4.44;100.00;100537.94;4932488;29;20582;-46
2023/12/30 09:09:09;;;;;;;11.55;2.17;;;;;;;4.45;100.00;100522.88;4934655;29;20221;-47
2023/12/30 09:11:38;;;;;;;13.73;2.17;;;;;;;4.42;100.00;100534.44;4934033;29;20199;-44
2023/12/30 09:14:07;;;;;;;12.30;2.42;;;;;;;4.46;100.00;100532.59;4932469;29;20223;-46
2023/12/30 09:16:33;;;;;;;15.82;2.08;;;;;;;4.43;100.00;100530.88;4932617;29;20195;-46
2023/12/30 09:18:58;;;;;;;12.68;1.85;;;;;;;4.43;100.00;100541.47;4912346;29;20192;-46
2023/12/30 09:21:24;;;;;;;8.68;2.25;;;;;;;4.41;100.00;100543.28;4932527;29;20233;-46
2023/12/30 09:23:50;;;;;;;11.20;1.67;;;;;;;4.36;100.00;100553.09;4935251;29;20590;-45
2023/12/30 09:26:16;;;;;;;12.35;1.90;;;;;;;4.32;100.00;100549.63;4919484;29;20188;-43
2023/12/30 09:28:42;;;;;;;11.75;2.20;;;;;;;4.32;100.00;100548.75;4920983;29;20195;-46
2023/12/30 09:31:08;;;;;;;8.95;1.77;;;;;;;4.26;100.00;100549.75;4931965;29;20230;-43
2023/12/30 09:33:33;;;;;;;15.25;3.00;;;;;;;4.29;100.00;100564.72;4927598;29;20203;-45
2023/12/30 09:35:59;;;;;;;16.88;1.85;;;;;;;4.33;100.00;100572.59;4934802;29;20226;-44
2023/12/30 09:38:25;;;;;;;11.32;2.50;;;;;;;4.33;100.00;100566.44;4937476;29;20174;-43
2023/12/30 09:40:51;;;;;;;16.00;2.42;;;;;;;4.33;100.00;100575.25;4936430;29;20563;-43
2023/12/30 09:43:27;;;;;;;13.18;1.85;;;;;;;4.27;100.00;100575.34;4933344;29;20235;-40
2023/12/30 09:45:55;;;;;;;8.88;1.63;;;;;;;4.32;100.00;100588.53;4916565;29;20175;-40
2023/12/30 09:48:24;;;;;;;12.70;1.95;;;;;;;4.35;100.00;100593.78;4932900;29;20405;-40
2023/12/30 09:50:51;;;;;;;10.88;2.28;;;;;;;4.40;100.00;100601.69;4916123;29;20172;-40
2023/12/30 09:53:17;;;;;;;16.17;2.30;;;;;;;4.46;100.00;100602.44;4932258;29;20207;-41
2023/12/30 09:55:45;;;;;;;14.55;2.60;;;;;;;4.56;100.00;100611.13;4933273;29;20203;-40
2023/12/30 09:58:12;;;;;;;12.65;2.47;;;;;;;4.74;100.00;100601.94;4931761;29;20813;-45
2023/12/30 10:00:44;;;;;;;11.73;2.30;;;;;;;4.80;100.00;100609.81;4928587;29;20625;-44
2023/12/30 10:03:10;;;;;;;17.20;3.03;;;;;;;4.78;100.00;100598.34;4929592;29;20222;-42
2023/12/30 10:05:36;;;;;;;9.70;2.30;;;;;;;4.89;100.00;100606.13;4931893;29;20184;-45
2023/12/30 10:08:03;;;;;;;14.77;2.67;;;;;;;4.81;100.00;100606.28;4916345;29;20182;-43
2023/12/30 10:10:40;;;;;;;13.20;2.83;;;;;;;4.76;100.00;100608.09;4934793;29;20654;-45
2023/12/30 10:13:06;;;;;;;12.27;2.50;;;;;;;4.90;100.00;100613.19;4924047;29;20739;-44
2023/12/30 10:15:31;;;;;;;16.85;2.70;;;;;;;4.91;100.00;100613.13;4933201;29;20194;-46
2023/12/30 10:17:57;;;;;;;8.73;2.17;;;;;;;4.91;100.00;100609.63;4933370;29;20584;-44
2023/12/30 10:20:23;;;;;;;11.93;2.28;;;;;;;5.01;100.00;100605.91;4936043;29;20191;-47
2023/12/30 10:22:49;;;;;;;12.95;2.67;;;;;;;5.00;100.00;100605.91;4927005;29;20199;-45
2023/12/30 10:25:14;;;;;;;12.00;2.35;;;;;;;4.95;100.00;100611.31;4930759;29;20180;-44
2023/12/30 10:27:40;;;;;;;9.10;1.95;;;;;;;5.06;100.00;100611.97;4930471;29;20249;-44
2023/12/30 10:30:08;;;;;;;7.93;1.65;;;;;;;5.09;100.00;100603.06;4933133;29;20222;-45
2023/12/30 10:32:33;;;;;;;9.45;1.75;;;;;;;4.98;100.00;100605.94;4914800;29;20207;-44
2023/12/30 10:34:59;;;;;;;9.88;2.17;;;;;;;4.85;100.00;100605.28;4933943;29;20191;-46
2023/12/30 10:37:26;;;;;;;12.23;2.25;;;;;;;4.83;100.00;100623.03;4932719;29;20207;-46
2023/12/30 10:39:55;;;;;;;9.98;1.73;;;;;;;4.88;100.00;100607.91;4934331;29;20193;-43
2023/12/30 10:42:20;;;;;;;14.98;2.22;;;;;;;4.89;100.00;100620.25;4937555;29;20194;-43
2023/12/30 10:44:46;;;;;;;13.45;1.92;;;;;;;4.92;100.00;100616.69;4934195;29;20179;-44
2023/12/30 10:47:14;;;;;;;13.82;2.00;;;;;;;4.93;100.00;100621.94;4939706;29;20195;-44
2023/12/30 10:49:49;;;;;;;10.00;2.03;;;;;;;5.00;100.00;100616.53;4934124;29;20176;-42
2023/12/30 10:52:21;;;;;;;10.73;2.05;;;;;;;4.95;100.00;100621.94;4934820;29;20277;-44
2023/12/30 10:55:04;;;;;;;16.90;2.58;;;;;;;5.01;100.00;100618.28;4936227;29;20175;-43
2023/12/30 10:57:34;;;;;;;16.73;2.67;;;;;;;5.00;100.00;100613.88;4933748;29;20187;-44
2023/12/30 11:00:06;;;;;;;8.80;2.17;;;;;;;5.08;100.00;100609.31;4935974;29;20199;-43
2023/12/30 11:02:33;;;;;;;10.57;2.10;;;;;;;5.09;100.00;100616.34;4933015;29;20342;-43
2023/12/30 11:05:01;;;;;;;16.88;2.85;;;;;;;5.19;100.00;100620.59;4937318;29;20187;-44
2023/12/30 11:07:27;;;;;;;12.32;2.10;;;;;;;5.20;100.00;100627.63;4936934;29;20191;-43
2023/12/30 11:09:53;;;;;;;14.40;2.10;;;;;;;5.18;100.00;100615.31;4934448;29;20176;-45
2023/12/30 11:12:18;;;;;;;9.45;1.77;;;;;;;5.21;100.00;100616.13;4974696;23;20226;-42
2023/12/30 11:14:44;;;;;;;13.65;2.20;;;;;;;5.23;100.00;100626.72;4981537;28;20212;-44
2023/12/30 11:17:09;;;;;;;9.02;1.95;;;;;;;5.17;100.00;100625.06;4991348;28;20212;-43
2023/12/30 11:19:36;;;;;;;10.50;2.40;;;;;;;5.19;100.00;100607.31;4976252;28;20175;-44
2023/12/30 11:22:05;;;;;;;10.02;1.95;;;;;;;5.15;100.00;100611.78;4945992;28;20268;-43